Time;durP1;ratioP1;P1;durP2;ratioP2;P2;SDS_P1;SDS_P2;PMS_P1;PMS_P2;Temp;Humidity;BMP_temperature;BMP_pressure;BME280_temperature;BME280_humidity;BME280_pressure;Samples;Min_cycle;Max_cycle;Signal;HPM_P1;HPM_P2
2021/03/30 00:01:28;;;;;;;;;;;;;;;11.69;51.08;102194.19;5074204;28;19928;-76
2021/03/30 00:03:55;;;;;;;;;;;;;;;11.67;51.09;102199.50;5057007;28;19946;-76
2021/03/30 00:06:22;;;;;;;;;;;;;;;11.66;51.48;102204.81;5072751;28;19939;-76
2021/03/30 00:08:49;;;;;;;;;;;;;;;11.65;51.46;102206.59;5063861;28;19924;-76
2021/03/30 00:11:17;;;;;;;;;;;;;;;11.63;51.86;102211.94;5060090;28;19937;-76
2021/03/30 00:13:44;;;;;;;;;;;;;;;11.62;51.70;102203.97;5056552;28;19924;-76
2021/03/30 00:16:11;;;;;;;;;;;;;;;11.61;52.19;102211.06;5076587;28;19928;-77
2021/03/30 00:18:38;;;;;;;;;;;;;;;11.67;51.56;102219.84;5070515;28;19929;-76
2021/03/30 00:21:05;;;;;;;;;;;;;;;11.74;50.16;102211.81;5078727;28;20420;-76
2021/03/30 00:23:32;;;;;;;;;;;;;;;11.78;48.72;102216.22;5076835;28;19929;-76
2021/03/30 00:25:59;;;;;;;;;;;;;;;11.85;47.84;102218.81;5079113;28;19938;-76
2021/03/30 00:28:27;;;;;;;;;;;;;;;11.89;46.86;102218.75;5074126;28;19978;-76
2021/03/30 00:30:54;;;;;;;;;;;;;;;11.95;46.27;102212.53;5067222;28;19928;-76
2021/03/30 00:33:21;;;;;;;;;;;;;;;11.99;45.45;102208.97;5074754;28;19974;-76
2021/03/30 00:35:48;;;;;;;;;;;;;;;12.01;45.08;102212.47;5074344;28;19932;-76
2021/03/30 00:38:15;;;;;;;;;;;;;;;12.03;44.52;102200.09;5076375;28;19933;-76
2021/03/30 00:40:42;;;;;;;;;;;;;;;12.08;44.04;102206.22;5073801;28;19928;-76
2021/03/30 00:43:11;;;;;;;;;;;;;;;12.10;43.58;102208.88;5054932;28;19929;-76
2021/03/30 00:45:38;;;;;;;;;;;;;;;12.11;43.22;102206.19;5075840;28;19928;-76
2021/03/30 00:48:06;;;;;;;;;;;;;;;12.11;43.03;102208.84;5072963;28;20405;-76
2021/03/30 00:50:33;;;;;;;;;;;;;;;12.04;43.54;102220.44;5059663;28;19928;-76
2021/03/30 00:53:16;;;;;;;;;;;;;;;11.94;44.52;102224.88;5058367;28;19924;-77
2021/03/30 00:55:55;;;;;;;;;;;;;;;11.88;45.14;102230.25;5059304;28;19928;-76
2021/03/30 00:58:22;;;;;;;;;;;;;;;11.83;45.60;102229.41;5073279;28;19988;-76
2021/03/30 01:00:50;;;;;;;;;;;;;;;11.80;45.96;102234.75;5071791;28;19932;-76
2021/03/30 01:03:17;;;;;;;;;;;;;;;11.76;46.25;102228.59;5077783;28;19974;-76
2021/03/30 01:05:44;;;;;;;;;;;;;;;11.74;46.78;102232.13;5073815;28;20201;-76
2021/03/30 01:08:29;;;;;;;;;;;;;;;11.71;46.84;102226.88;5079180;28;20035;-76
2021/03/30 01:10:59;;;;;;;;;;;;;;;11.69;47.39;102223.34;5069634;28;19954;-76
2021/03/30 01:13:39;;;;;;;;;;;;;;;11.67;47.76;102228.66;5072911;28;19994;-76
2021/03/30 01:16:11;;;;;;;;;;;;;;;11.65;47.89;102233.13;5076406;28;20213;-76
2021/03/30 01:18:41;;;;;;;;;;;;;;;11.63;48.24;102243.75;5075048;28;19924;-76
2021/03/30 01:21:35;;;;;;;;;;;;;;;11.61;48.47;102232.25;5075502;28;19959;-76
2021/03/30 01:24:09;;;;;;;;;;;;;;;11.61;48.76;102226.09;5074830;28;19928;-76
2021/03/30 01:26:43;;;;;;;;;;;;;;;11.59;49.25;102227.84;5073513;28;19928;-76
2021/03/30 01:29:39;;;;;;;;;;;;;;;11.58;49.25;102232.28;5067497;28;19928;-76
2021/03/30 01:32:12;;;;;;;;;;;;;;;11.58;49.26;102240.25;5025840;28;19932;-76
2021/03/30 01:34:40;;;;;;;;;;;;;;;11.57;49.55;102242.88;5071407;28;19924;-75
2021/03/30 01:37:08;;;;;;;;;;;;;;;11.56;49.88;102243.78;5074948;28;19932;-76
2021/03/30 01:39:36;;;;;;;;;;;;;;;11.53;50.12;102242.03;5075497;28;19928;-76
2021/03/30 01:42:03;;;;;;;;;;;;;;;11.54;50.00;102232.31;5070469;28;19933;-76
2021/03/30 01:44:31;;;;;;;;;;;;;;;11.52;50.64;102232.31;5075959;28;19992;-76
2021/03/30 01:47:00;;;;;;;;;;;;;;;11.52;50.54;102232.31;5070746;28;19935;-76
2021/03/30 01:49:28;;;;;;;;;;;;;;;11.51;50.38;102227.03;5059198;28;19960;-76
2021/03/30 01:51:57;;;;;;;;;;;;;;;11.51;50.88;102224.41;5070878;28;19929;-76
2021/03/30 01:54:24;;;;;;;;;;;;;;;11.42;50.85;102220.91;5068613;28;19948;-76
2021/03/30 01:56:53;;;;;;;;;;;;;;;11.48;50.97;102227.03;5076745;28;19952;-76
2021/03/30 01:59:21;;;;;;;;;;;;;;;11.47;51.32;102234.13;5072964;28;20471;-77
2021/03/30 02:01:49;;;;;;;;;;;;;;;11.46;51.32;102235.91;5079931;28;19956;-77
2021/03/30 02:04:16;;;;;;;;;;;;;;;11.45;51.53;102231.50;5077690;28;19935;-76
2021/03/30 02:06:46;;;;;;;;;;;;;;;11.45;52.02;102241.19;5075450;28;19932;-76
2021/03/30 02:09:18;;;;;;;;;;;;;;;11.44;52.37;102244.75;5057277;28;19931;-76
2021/03/30 02:11:48;;;;;;;;;;;;;;;11.44;52.74;102234.16;5077597;28;19928;-76
2021/03/30 02:14:15;;;;;;;;;;;;;;;11.43;52.93;102238.56;5082388;28;19988;-77
2021/03/30 02:16:47;;;;;;;;;;;;;;;11.48;52.61;102233.25;5056125;28;19935;-76
2021/03/30 02:19:16;;;;;;;;;;;;;;;11.54;50.78;102230.53;5064031;28;19967;-76
2021/03/30 02:21:45;;;;;;;;;;;;;;;11.60;49.51;102233.13;5068923;28;19931;-76
2021/03/30 02:24:13;;;;;;;;;;;;;;;11.67;48.42;102233.09;5082008;28;20463;-76
2021/03/30 02:26:42;;;;;;;;;;;;;;;11.74;47.43;102226.84;5060800;28;19935;-75
2021/03/30 02:29:10;;;;;;;;;;;;;;;11.77;47.02;102230.34;5080942;28;20392;-77
2021/03/30 02:31:38;;;;;;;;;;;;;;;11.82;46.22;102222.38;5084102;28;19928;-76
2021/03/30 02:34:07;;;;;;;;;;;;;;;11.87;45.39;102227.59;5070862;28;20413;-76
2021/03/30 02:36:34;;;;;;;;;;;;;;;11.89;45.35;102225.84;5067750;28;19928;-76
2021/03/30 02:39:05;;;;;;;;;;;;;;;11.90;44.65;102225.81;5078131;28;19938;-76
2021/03/30 02:41:33;;;;;;;;;;;;;;;11.93;44.14;102230.22;5078528;28;19939;-76
2021/03/30 02:44:01;;;;;;;;;;;;;;;11.98;43.61;102230.19;5062803;28;19998;-77
2021/03/30 02:46:29;;;;;;;;;;;;;;;11.98;43.58;102233.75;5080102;28;19975;-77
2021/03/30 02:48:56;;;;;;;;;;;;;;;12.01;43.25;102224.88;5073959;28;20400;-76
2021/03/30 02:51:23;;;;;;;;;;;;;;;12.01;43.13;102231.03;5054393;28;19932;-75
2021/03/30 02:53:51;;;;;;;;;;;;;;;12.05;42.81;102232.78;5076742;28;19924;-77
2021/03/30 02:56:20;;;;;;;;;;;;;;;11.96;43.19;102227.56;5075626;28;20451;-76
2021/03/30 02:58:47;;;;;;;;;;;;;;;11.87;44.20;102232.91;5077715;28;19950;-76
2021/03/30 03:01:15;;;;;;;;;;;;;;;11.80;45.07;102226.78;5063416;28;19936;-76
2021/03/30 03:03:43;;;;;;;;;;;;;;;11.73;45.11;102223.31;5048818;28;19928;-76
2021/03/30 03:06:10;;;;;;;;;;;;;;;11.71;45.55;102219.78;5079808;28;19991;-77
2021/03/30 03:08:38;;;;;;;;;;;;;;;11.68;46.53;102221.59;5078257;28;19931;-76
2021/03/30 03:11:05;;;;;;;;;;;;;;;11.64;46.67;102223.41;5078732;28;20213;-77
2021/03/30 03:13:34;;;;;;;;;;;;;;;11.61;47.08;102219.00;5064944;28;20450;-77
2021/03/30 03:16:01;;;;;;;;;;;;;;;11.59;47.33;102225.19;5068839;28;19947;-76
2021/03/30 03:18:31;;;;;;;;;;;;;;;11.56;47.91;102220.81;5080774;28;19928;-76
2021/03/30 03:20:58;;;;;;;;;;;;;;;11.56;47.86;102222.59;5061392;28;20357;-75
2021/03/30 03:23:26;;;;;;;;;;;;;;;11.54;48.11;102224.34;5080504;28;19990;-76
2021/03/30 03:25:53;;;;;;;;;;;;;;;11.52;48.50;102219.06;5078753;28;19970;-76
2021/03/30 03:28:20;;;;;;;;;;;;;;;11.51;48.67;102221.75;5079443;28;19958;-76
2021/03/30 03:30:49;;;;;;;;;;;;;;;11.50;49.22;102212.03;5077759;28;19924;-77
2021/03/30 03:33:15;;;;;;;;;;;;;;;11.48;49.49;102212.03;5071864;28;19952;-76
2021/03/30 03:35:59;;;;;;;;;;;;;;;11.48;49.69;102219.09;5079587;28;20340;-76
2021/03/30 03:38:26;;;;;;;;;;;;;;;11.46;49.90;102230.63;5073059;28;19929;-76
2021/03/30 03:40:53;;;;;;;;;;;;;;;11.45;50.13;102223.53;5079780;28;19925;-76
2021/03/30 03:43:20;;;;;;;;;;;;;;;11.44;50.20;102231.50;5079356;28;19939;-76
2021/03/30 03:45:47;;;;;;;;;;;;;;;11.43;50.48;102233.25;5074311;28;19955;-75
2021/03/30 03:48:15;;;;;;;;;;;;;;;11.43;50.44;102232.41;5081452;28;20015;-75
2021/03/30 03:50:43;;;;;;;;;;;;;;;11.41;50.91;102235.06;5074723;28;19935;-75
2021/03/30 03:53:11;;;;;;;;;;;;;;;11.40;50.97;102230.66;5080238;28;19974;-76
2021/03/30 03:55:41;;;;;;;;;;;;;;;11.39;51.17;102223.59;5076801;28;19993;-77
2021/03/30 03:58:08;;;;;;;;;;;;;;;11.37;51.18;102229.78;5055900;28;19959;-76
2021/03/30 04:00:36;;;;;;;;;;;;;;;11.36;51.49;102230.66;5076305;28;19932;-76
2021/03/30 04:03:07;;;;;;;;;;;;;;;11.33;51.83;102220.97;5072574;28;19924;-76
2021/03/30 04:05:37;;;;;;;;;;;;;;;11.29;51.92;102224.53;5083134;28;19924;-76
2021/03/30 04:08:05;;;;;;;;;;;;;;;11.27;52.44;102223.69;5072957;28;19928;-76
2021/03/30 04:10:33;;;;;;;;;;;;;;;11.27;52.70;102221.03;5080575;28;19928;-75
2021/03/30 04:13:01;;;;;;;;;;;;;;;11.32;50.85;102219.25;5071663;28;19928;-76
2021/03/30 04:15:28;;;;;;;;;;;;;;;11.40;49.32;102221.81;5057233;28;19978;-75
2021/03/30 04:17:55;;;;;;;;;;;;;;;11.43;48.15;102237.69;5062174;28;19931;-75
2021/03/30 04:20:22;;;;;;;;;;;;;;;11.46;47.40;102246.50;5074756;28;19928;-76
2021/03/30 04:22:55;;;;;;;;;;;;;;;11.48;46.53;102246.50;5077208;28;19933;-76
2021/03/30 04:25:22;;;;;;;;;;;;;;;11.39;47.73;102242.13;5061751;28;19928;-75
2021/03/30 04:27:49;;;;;;;;;;;;;;;11.34;48.97;102243.06;5073095;28;19995;-76
2021/03/30 04:30:16;;;;;;;;;;;;;;;11.30;49.07;102247.50;5060038;28;19940;-76
2021/03/30 04:32:43;;;;;;;;;;;;;;;11.34;49.51;102243.94;5074142;28;19928;-75
2021/03/30 04:35:11;;;;;;;;;;;;;;;11.39;48.23;102244.78;5081502;28;20292;-76
2021/03/30 04:37:39;;;;;;;;;;;;;;;11.44;46.81;102248.28;5070772;28;20455;-75
2021/03/30 04:40:08;;;;;;;;;;;;;;;11.47;46.30;102244.72;5075483;28;19935;-76
2021/03/30 04:42:35;;;;;;;;;;;;;;;11.50;45.55;102251.78;5074065;28;20035;-76
2021/03/30 04:45:02;;;;;;;;;;;;;;;11.52;45.04;102257.97;5078992;28;19935;-75
2021/03/30 04:47:28;;;;;;;;;;;;;;;11.56;44.31;102255.25;5061076;28;19929;-75
2021/03/30 04:49:55;;;;;;;;;;;;;;;11.58;44.05;102256.16;5058705;28;19932;-76
2021/03/30 04:52:22;;;;;;;;;;;;;;;11.62;43.23;102256.97;5067074;28;19956;-75
2021/03/30 04:54:49;;;;;;;;;;;;;;;11.64;43.27;102257.84;5071008;28;19929;-76
2021/03/30 04:57:17;;;;;;;;;;;;;;;11.66;43.00;102268.44;5071328;28;19925;-76
2021/03/30 04:59:44;;;;;;;;;;;;;;;11.68;42.58;102264.03;5077468;28;19933;-76
2021/03/30 05:02:11;;;;;;;;;;;;;;;11.61;42.27;102269.34;5076940;28;19929;-76
2021/03/30 05:04:38;;;;;;;;;;;;;;;11.59;43.51;102259.66;5080451;28;19935;-76
2021/03/30 05:07:05;;;;;;;;;;;;;;;11.52;44.08;102266.78;5071958;28;19924;-76
2021/03/30 05:09:32;;;;;;;;;;;;;;;11.47;44.82;102268.56;5070544;28;19999;-76
2021/03/30 05:11:59;;;;;;;;;;;;;;;11.43;45.74;102270.38;5059857;28;19924;-76
2021/03/30 05:14:26;;;;;;;;;;;;;;;11.41;46.01;102266.84;5075084;28;20195;-76
2021/03/30 05:16:53;;;;;;;;;;;;;;;11.42;46.02;102263.28;5079537;28;20006;-76
2021/03/30 05:19:20;;;;;;;;;;;;;;;11.41;46.41;102269.50;5074085;28;19935;-76
2021/03/30 05:21:47;;;;;;;;;;;;;;;11.42;46.82;102265.94;5073191;28;19936;-76
2021/03/30 05:24:14;;;;;;;;;;;;;;;11.40;46.96;102270.41;5055935;28;19929;-76
2021/03/30 05:26:41;;;;;;;;;;;;;;;11.40;47.71;102264.19;5068708;28;19934;-75
2021/03/30 05:29:08;;;;;;;;;;;;;;;11.41;48.28;102274.81;5079732;28;19925;-76
2021/03/30 05:31:36;;;;;;;;;;;;;;;11.45;48.13;102265.03;5074355;28;19946;-75
2021/03/30 05:34:03;;;;;;;;;;;;;;;11.46;48.44;102267.72;5084700;28;19928;-76
2021/03/30 05:36:30;;;;;;;;;;;;;;;11.49;48.58;102266.81;5071067;28;19928;-75
2021/03/30 05:38:57;;;;;;;;;;;;;;;11.51;48.87;102265.00;5074284;28;19946;-76
2021/03/30 05:41:25;;;;;;;;;;;;;;;11.53;48.83;102268.53;5064036;28;19945;-76
2021/03/30 05:43:52;;;;;;;;;;;;;;;11.59;49.04;102270.25;5076047;28;19924;-76
2021/03/30 05:46:19;;;;;;;;;;;;;;;11.60;49.53;102269.38;5077331;28;19963;-76
2021/03/30 05:48:48;;;;;;;;;;;;;;;11.64;49.66;102276.41;5073511;28;19936;-76
2021/03/30 05:51:17;;;;;;;;;;;;;;;11.67;49.85;102264.91;5073766;28;19967;-75
2021/03/30 05:53:45;;;;;;;;;;;;;;;11.68;50.31;102272.84;5078322;28;19951;-76
2021/03/30 05:56:13;;;;;;;;;;;;;;;11.75;50.24;102265.72;5080157;28;20292;-76
2021/03/30 05:58:43;;;;;;;;;;;;;;;11.81;50.10;102268.31;5080646;28;19929;-75
2021/03/30 06:01:14;;;;;;;;;;;;;;;11.84;49.87;102276.25;5057647;28;19929;-76
2021/03/30 06:03:41;;;;;;;;;;;;;;;11.88;49.78;102282.41;5075245;28;19929;-76
2021/03/30 06:06:09;;;;;;;;;;;;;;;11.92;49.65;102278.84;5071078;28;19925;-76
2021/03/30 06:08:36;;;;;;;;;;;;;;;12.00;49.48;102278.81;5081008;28;19951;-76
2021/03/30 06:11:04;;;;;;;;;;;;;;;12.09;49.43;102290.19;5081497;28;19925;-75
2021/03/30 06:13:44;;;;;;;;;;;;;;;12.14;49.30;102282.22;5078204;28;19928;-76
2021/03/30 06:16:24;;;;;;;;;;;;;;;12.29;49.04;102282.06;5080114;28;19979;-76
2021/03/30 06:19:00;;;;;;;;;;;;;;;12.39;49.03;102277.53;5072081;28;19932;-76
2021/03/30 06:21:27;;;;;;;;;;;;;;;12.49;48.51;102270.38;5081597;28;20244;-76
2021/03/30 06:23:55;;;;;;;;;;;;;;;12.64;48.53;102281.69;5077691;28;19931;-76
2021/03/30 06:26:24;;;;;;;;;;;;;;;12.70;48.40;102279.84;5078388;28;20492;-75
2021/03/30 06:28:51;;;;;;;;;;;;;;;12.79;47.40;102284.16;5078377;28;19928;-75
2021/03/30 06:31:18;;;;;;;;;;;;;;;12.93;45.91;102284.00;5074639;28;19939;-76
2021/03/30 06:33:46;;;;;;;;;;;;;;;13.11;44.25;102282.88;5058530;28;19995;-75
2021/03/30 06:36:15;;;;;;;;;;;;;;;13.34;43.52;102285.19;5070871;28;19933;-76
2021/03/30 06:38:53;;;;;;;;;;;;;;;13.55;42.26;102281.41;5080142;28;19982;-76
2021/03/30 06:41:44;;;;;;;;;;;;;;;13.78;41.21;102291.66;5061639;28;20404;-75
2021/03/30 06:44:27;;;;;;;;;;;;;;;13.97;40.59;102293.13;5080099;28;20280;-76
2021/03/30 06:46:56;;;;;;;;;;;;;;;14.16;39.89;102291.06;5055987;28;20053;-76
2021/03/30 06:49:23;;;;;;;;;;;;;;;14.26;40.76;102296.16;5062230;28;19928;-76
2021/03/30 06:51:50;;;;;;;;;;;;;;;14.30;41.28;102297.00;5078631;28;19972;-76
2021/03/30 06:54:18;;;;;;;;;;;;;;;14.43;41.43;102294.97;5060118;28;19948;-76
2021/03/30 06:56:48;;;;;;;;;;;;;;;14.56;41.91;102299.16;5080451;28;19928;-76
2021/03/30 06:59:16;;;;;;;;;;;;;;;14.79;40.65;102295.19;5057123;28;20351;-76
2021/03/30 07:01:43;;;;;;;;;;;;;;;14.89;39.86;102307.41;5075797;28;19928;-76
2021/03/30 07:04:10;;;;;;;;;;;;;;;14.98;39.33;102309.00;5080908;28;19932;-76
2021/03/30 07:06:37;;;;;;;;;;;;;;;15.18;38.35;102310.34;5078476;28;19932;-76
2021/03/30 07:09:04;;;;;;;;;;;;;;;15.22;38.00;102314.72;5078246;28;20399;-76
2021/03/30 07:11:34;;;;;;;;;;;;;;;15.10;38.42;102310.53;5071834;28;19932;-76
2021/03/30 07:14:01;;;;;;;;;;;;;;;15.40;37.78;102311.66;5054297;28;20466;-76
2021/03/30 07:16:30;;;;;;;;;;;;;;;15.54;38.46;102321.13;5059042;28;19970;-75
2021/03/30 07:18:58;;;;;;;;;;;;;;;15.26;39.00;102317.28;5061619;28;19960;-76
2021/03/30 07:21:27;;;;;;;;;;;;;;;15.42;38.83;102312.47;5061546;28;19940;-76
2021/03/30 07:23:55;;;;;;;;;;;;;;;15.64;39.57;102322.66;5074548;28;19931;-76
2021/03/30 07:26:23;;;;;;;;;;;;;;;15.52;39.79;102314.94;5058068;28;19931;-76
2021/03/30 07:29:04;;;;;;;;;;;;;;;15.72;39.60;102314.44;5073073;28;19932;-76
2021/03/30 07:31:35;;;;;;;;;;;;;;;15.60;40.28;102311.19;5077800;28;19935;-77
2021/03/30 07:34:06;;;;;;;;;;;;;;;15.66;40.74;102309.28;5081129;28;19934;-77
2021/03/30 07:36:34;;;;;;;;;;;;;;;15.92;40.50;102312.22;5074164;28;19928;-76
2021/03/30 07:39:02;;;;;;;;;;;;;;;15.97;40.69;102313.88;5081312;28;20010;-77
2021/03/30 07:41:29;;;;;;;;;;;;;;;16.14;40.64;102306.34;5072652;28;20424;-76
2021/03/30 07:44:01;;;;;;;;;;;;;;;16.40;40.21;102312.75;5076606;28;19933;-76
2021/03/30 07:46:29;;;;;;;;;;;;;;;16.80;39.38;102310.81;5059611;28;20443;-77
2021/03/30 07:48:56;;;;;;;;;;;;;;;17.36;38.44;102313.59;5057768;28;19947;-76
2021/03/30 07:51:33;;;;;;;;;;;;;;;17.12;39.49;102307.19;5060118;28;19924;-77
2021/03/30 07:54:08;;;;;;;;;;;;;;;17.63;38.75;102318.13;5074754;28;19924;-76
2021/03/30 07:56:48;;;;;;;;;;;;;;;18.02;38.08;102326.66;5054505;28;19929;-76
2021/03/30 07:59:30;;;;;;;;;;;;;;;18.20;37.83;102329.63;5057277;28;19924;-76
2021/03/30 08:01:59;;;;;;;;;;;;;;;18.68;37.44;102334.19;5079702;28;19928;-77
2021/03/30 08:04:26;;;;;;;;;;;;;;;19.06;37.04;102323.00;5077308;28;19925;-77
2021/03/30 08:06:53;;;;;;;;;;;;;;;19.42;36.33;102314.44;5078255;28;19940;-77
2021/03/30 08:09:20;;;;;;;;;;;;;;;19.60;36.35;102326.25;5053245;28;19924;-77
2021/03/30 08:11:49;;;;;;;;;;;;;;;20.11;35.57;102340.31;5069632;28;19990;-77
2021/03/30 08:14:38;;;;;;;;;;;;;;;20.37;35.05;102341.00;5080691;28;19928;-77
2021/03/30 08:17:13;;;;;;;;;;;;;;;20.85;34.33;102337.06;5059994;28;20014;-77
2021/03/30 08:19:57;;;;;;;;;;;;;;;21.18;34.04;102325.72;5084142;28;19929;-77
2021/03/30 08:22:26;;;;;;;;;;;;;;;21.85;33.37;102326.09;5066958;28;19929;-77
2021/03/30 08:24:57;;;;;;;;;;;;;;;22.08;32.98;102344.75;5077504;28;20019;-77
2021/03/30 08:27:38;;;;;;;;;;;;;;;22.50;32.40;102346.19;5058148;28;19932;-77
2021/03/30 08:30:13;;;;;;;;;;;;;;;22.75;32.14;102342.19;5078278;28;19991;-77
2021/03/30 08:32:43;;;;;;;;;;;;;;;23.12;31.69;102337.47;5076319;28;19995;-76
2021/03/30 08:35:11;;;;;;;;;;;;;;;23.71;30.97;102338.63;5076971;28;19977;-78
2021/03/30 08:37:39;;;;;;;;;;;;;;;23.98;30.67;102339.81;5072959;28;19928;-77
2021/03/30 08:40:35;;;;;;;;;;;;;;;24.16;30.54;102338.75;5073949;28;19936;-78
2021/03/30 08:43:19;;;;;;;;;;;;;;;24.49;30.30;102323.25;5080426;28;19982;-77
2021/03/30 08:45:59;;;;;;;;;;;;;;;24.95;29.77;102322.22;5073423;28;19932;-77
2021/03/30 08:48:31;;;;;;;;;;;;;;;25.76;28.68;102332.31;5080071;28;20412;-76
2021/03/30 08:50:59;;;;;;;;;;;;;;;25.91;28.72;102338.56;5067719;28;19964;-76
2021/03/30 08:53:30;;;;;;;;;;;;;;;26.43;27.90;102338.66;5073897;28;19932;-78
2021/03/30 08:55:58;;;;;;;;;;;;;;;26.71;27.65;102342.16;5076953;28;20000;-77
2021/03/30 08:58:25;;;;;;;;;;;;;;;27.30;27.01;102336.09;5072641;28;19981;-77
2021/03/30 09:00:54;;;;;;;;;;;;;;;27.40;26.99;102330.91;5079756;28;19947;-78
2021/03/30 09:03:25;;;;;;;;;;;;;;;27.74;26.81;102334.66;5063507;28;19964;-78
2021/03/30 09:05:53;;;;;;;;;;;;;;;27.97;26.57;102332.03;5072004;28;19999;-78
2021/03/30 09:08:39;;;;;;;;;;;;;;;28.57;25.83;102327.38;5060287;28;19929;-77
2021/03/30 09:11:13;;;;;;;;;;;;;;;28.89;25.55;102326.69;5070186;28;19932;-78
2021/03/30 09:13:40;;;;;;;;;;;;;;;29.47;24.98;102339.25;5053607;28;19940;-78
2021/03/30 09:16:08;;;;;;;;;;;;;;;29.60;24.98;102326.34;5055505;28;19932;-78
2021/03/30 09:18:36;;;;;;;;;;;;;;;30.07;24.25;102325.16;5051745;28;19928;-78
2021/03/30 09:21:07;;;;;;;;;;;;;;;30.28;24.16;102328.78;5048424;28;19925;-77
2021/03/30 09:23:34;;;;;;;;;;;;;;;30.92;23.29;102321.34;5058208;28;19932;-78
2021/03/30 09:26:09;;;;;;;;;;;;;;;31.04;23.26;102329.44;5053607;28;19924;-78
2021/03/30 09:28:36;;;;;;;;;;;;;;;31.57;22.98;102317.34;5052198;28;19933;-78
2021/03/30 09:31:03;;;;;;;;;;;;;;;31.99;22.62;102311.59;5055186;28;19925;-77
2021/03/30 09:33:30;;;;;;;;;;;;;;;32.48;22.18;102324.34;5047558;28;19964;-77
2021/03/30 09:36:00;;;;;;;;;;;;;;;32.77;21.91;102324.28;5056645;28;19929;-77
2021/03/30 09:38:30;;;;;;;;;;;;;;;33.19;21.49;102317.44;5065272;28;19926;-78
2021/03/30 09:40:57;;;;;;;;;;;;;;;33.32;21.55;102315.22;5057835;28;19933;-77
2021/03/30 09:43:24;;;;;;;;;;;;;;;33.70;21.05;102320.53;5040541;28;19984;-78
2021/03/30 09:45:53;;;;;;;;;;;;;;;33.93;20.83;102320.94;5043589;28;19925;-77
2021/03/30 09:48:20;;;;;;;;;;;;;;;34.39;20.75;102329.03;5042030;28;19929;-77
2021/03/30 09:50:49;;;;;;;;;;;;;;;34.74;20.00;102336.25;5048902;28;19925;-78
2021/03/30 09:53:16;;;;;;;;;;;;;;;35.01;20.22;102338.97;5046174;28;19933;-78
2021/03/30 09:55:45;;;;;;;;;;;;;;;35.17;19.84;102341.81;5060894;28;19932;-78
2021/03/30 09:58:13;;;;;;;;;;;;;;;35.35;19.83;102347.19;5047417;28;19928;-78
2021/03/30 10:00:41;;;;;;;;;;;;;;;35.83;19.23;102350.19;5064626;28;19943;-77
2021/03/30 10:03:09;;;;;;;;;;;;;;;36.22;19.16;102338.50;5044769;28;19928;-79
2021/03/30 10:05:37;;;;;;;;;;;;;;;36.43;18.95;102320.56;5047997;28;19994;-79
2021/03/30 10:08:05;;;;;;;;;;;;;;;36.57;18.97;102335.53;5043100;28;19925;-79
2021/03/30 10:10:41;;;;;;;;;;;;;;;36.79;18.77;102336.66;5056381;28;20402;-79
2021/03/30 10:13:22;;;;;;;;;;;;;;;37.32;18.34;102338.88;5059223;28;19936;-79
2021/03/30 10:15:50;;;;;;;;;;;;;;;37.57;18.15;102339.53;5062503;28;19947;-79
2021/03/30 10:18:18;;;;;;;;;;;;;;;37.53;18.12;102333.53;5065747;28;19968;-79
2021/03/30 10:20:45;;;;;;;;;;;;;;;37.71;18.13;102324.09;5075391;28;20547;-77
2021/03/30 10:23:16;;;;;;;;;;;;;;;37.76;17.88;102332.69;5061555;28;20707;-78
2021/03/30 10:25:43;;;;;;;;;;;;;;;37.79;17.83;102337.00;5060577;28;19940;-77
2021/03/30 10:28:11;;;;;;;;;;;;;;;38.08;17.74;102343.66;5041047;28;19954;-77
2021/03/30 10:30:40;;;;;;;;;;;;;;;38.13;17.88;102332.91;5056803;28;19995;-76
2021/03/30 10:33:11;;;;;;;;;;;;;;;38.27;17.59;102329.34;5044003;28;19929;-77
2021/03/30 10:35:39;;;;;;;;;;;;;;;38.18;17.49;102330.44;5067405;28;20027;-77
2021/03/30 10:38:06;;;;;;;;;;;;;;;38.27;17.46;102325.69;5046531;28;19939;-80
2021/03/30 10:40:34;;;;;;;;;;;;;;;38.36;17.11;102328.19;5039892;28;19940;-78
2021/03/30 10:43:17;;;;;;;;;;;;;;;38.04;17.82;102319.16;5052315;28;20005;-78
2021/03/30 10:45:45;;;;;;;;;;;;;;;38.36;17.41;102332.84;5059945;28;20004;-76
2021/03/30 10:48:12;;;;;;;;;;;;;;;38.40;17.25;102328.66;5058552;28;20811;-77
2021/03/30 10:50:39;;;;;;;;;;;;;;;38.19;17.79;102333.00;5061228;28;20499;-78
2021/03/30 10:53:06;;;;;;;;;;;;;;;38.03;17.34;102328.50;5062781;28;19928;-69
2021/03/30 10:55:34;;;;;;;;;;;;;;;34.19;18.38;102334.69;5057073;28;19925;-68
2021/03/30 10:58:04;;;;;;;;;;;;;;;32.99;19.98;102331.25;5052824;28;19971;-68
2021/03/30 11:00:32;;;;;;;;;;;;;;;31.59;21.42;102332.59;5060245;28;19932;-68
2021/03/30 11:02:59;;;;;;;;;;;;;;;31.58;21.47;102336.31;5060275;28;20437;-68
2021/03/30 11:05:26;;;;;;;;;;;;;;;31.69;21.12;102334.50;5059776;28;19929;-68
2021/03/30 11:07:53;;;;;;;;;;;;;;;31.63;20.88;102327.75;5056807;28;19969;-68
2021/03/30 11:10:22;;;;;;;;;;;;;;;31.05;22.01;102336.69;5056656;28;19958;-68
2021/03/30 11:12:49;;;;;;;;;;;;;;;30.91;22.40;102330.53;5065013;28;19997;-68
2021/03/30 11:15:15;;;;;;;;;;;;;;;31.14;22.03;102330.38;5078158;28;19937;-68
2021/03/30 11:17:43;;;;;;;;;;;;;;;30.65;22.64;102346.50;5057828;28;19986;-68
2021/03/30 11:20:12;;;;;;;;;;;;;;;31.13;21.99;102345.88;5070419;28;19955;-68
2021/03/30 11:22:42;;;;;;;;;;;;;;;30.53;23.11;102339.41;5058088;28;19929;-68
2021/03/30 11:25:11;;;;;;;;;;;;;;;31.07;22.15;102348.31;5053254;28;19929;-68
2021/03/30 11:27:41;;;;;;;;;;;;;;;30.56;22.94;102350.06;5058587;28;22684;-68
2021/03/30 11:30:11;;;;;;;;;;;;;;;30.69;22.62;102342.53;5061343;28;19937;-70
2021/03/30 11:32:43;;;;;;;;;;;;;;;31.00;22.33;102347.13;5057461;28;19932;-68
2021/03/30 11:35:14;;;;;;;;;;;;;;;30.57;22.95;102327.22;5063192;28;19950;-70
2021/03/30 11:37:50;;;;;;;;;;;;;;;30.57;22.84;102333.53;5055139;28;19932;-70
2021/03/30 11:40:17;;;;;;;;;;;;;;;30.74;22.91;102350.31;5054225;28;20693;-69
2021/03/30 11:42:45;;;;;;;;;;;;;;;31.23;22.49;102339.56;5057767;28;19932;-70
2021/03/30 11:45:12;;;;;;;;;;;;;;;30.88;22.71;102355.41;5058130;28;19936;-71
